createdAt,value
2023-05-12T00:02:05.906Z,14.39
2023-05-12T00:04:32.325Z,14.31
2023-05-12T00:06:59.150Z,14.31
2023-05-12T00:09:25.527Z,14.31
2023-05-12T00:11:51.938Z,14.33
2023-05-12T00:14:18.688Z,14.29
2023-05-12T00:16:45.107Z,14.24
2023-05-12T00:19:11.600Z,14.18
2023-05-12T00:21:37.978Z,14.22
2023-05-12T00:24:04.401Z,14.23
2023-05-12T00:26:30.806Z,14.21
2023-05-12T00:28:57.177Z,14.23
2023-05-12T00:31:23.661Z,14.22
2023-05-12T00:33:50.044Z,14.20
2023-05-12T00:36:16.411Z,14.11
2023-05-12T00:38:42.924Z,14.08
2023-05-12T00:41:09.308Z,14.04
2023-05-12T00:43:36.780Z,13.97
2023-05-12T00:46:03.409Z,13.86
2023-05-12T00:48:29.831Z,13.93
2023-05-12T00:50:56.350Z,13.97
2023-05-12T00:53:22.941Z,13.96
2023-05-12T00:55:49.437Z,14.01
2023-05-12T00:58:15.815Z,14.07
2023-05-12T01:00:42.165Z,13.88
2023-05-12T01:03:08.714Z,13.90
2023-05-12T01:05:35.176Z,13.88
2023-05-12T01:08:01.816Z,13.86
2023-05-12T01:10:28.138Z,13.84
2023-05-12T01:12:54.552Z,13.87
2023-05-12T01:15:20.912Z,13.86
2023-05-12T01:17:47.495Z,13.73
2023-05-12T01:20:14.008Z,13.61
2023-05-12T01:22:40.426Z,13.61
2023-05-12T01:25:06.795Z,13.71
2023-05-12T01:27:33.309Z,13.73
2023-05-12T01:29:59.739Z,13.53
2023-05-12T01:32:26.120Z,13.49
2023-05-12T01:34:52.510Z,13.54
2023-05-12T01:37:19.007Z,13.61
2023-05-12T01:39:45.471Z,13.63
2023-05-12T01:42:11.831Z,13.59
2023-05-12T01:44:38.246Z,13.73
2023-05-12T01:47:04.691Z,13.38
2023-05-12T01:49:31.121Z,13.39
2023-05-12T01:51:57.478Z,13.37
2023-05-12T01:54:23.871Z,13.42
2023-05-12T01:56:50.620Z,13.36
2023-05-12T01:59:17.010Z,13.44
2023-05-12T02:01:43.645Z,13.32
2023-05-12T02:04:10.121Z,13.35
2023-05-12T02:06:36.528Z,13.40
2023-05-12T02:09:03.182Z,13.38
2023-05-12T02:11:29.861Z,13.39
2023-05-12T02:13:56.235Z,13.30
2023-05-12T02:16:25.494Z,13.29
2023-05-12T02:18:52.071Z,13.43
2023-05-12T02:21:20.783Z,13.45
2023-05-12T02:23:48.278Z,13.44
2023-05-12T02:26:14.655Z,13.36
2023-05-12T02:28:41.047Z,13.28
2023-05-12T02:31:07.492Z,13.35
2023-05-12T02:33:33.921Z,13.33
2023-05-12T02:36:00.258Z,13.17
2023-05-12T02:38:26.679Z,13.05
2023-05-12T02:40:53.056Z,13.07
2023-05-12T02:43:19.642Z,13.14
2023-05-12T02:45:46.086Z,13.26
2023-05-12T02:48:12.465Z,13.12
2023-05-12T02:50:39.194Z,13.03
2023-05-12T02:53:05.632Z,13.07
2023-05-12T02:55:32.312Z,13.04
2023-05-12T02:57:58.955Z,13.05
2023-05-12T03:00:25.382Z,13.08
2023-05-12T03:02:51.853Z,13.04
2023-05-12T03:05:18.305Z,13.03
2023-05-12T03:07:45.128Z,12.91
2023-05-12T03:10:11.508Z,12.90
2023-05-12T03:12:37.873Z,12.76
2023-05-12T03:15:04.287Z,12.63
2023-05-12T03:17:31.005Z,12.49
2023-05-12T03:19:57.450Z,12.21
2023-05-12T03:22:23.895Z,12.46
2023-05-12T03:24:50.337Z,12.51
2023-05-12T03:27:16.647Z,12.61
2023-05-12T03:29:43.201Z,12.66
2023-05-12T03:32:09.598Z,12.44
2023-05-12T03:34:36.029Z,12.36
2023-05-12T03:37:02.456Z,12.38
2023-05-12T03:39:28.827Z,12.42
2023-05-12T03:41:55.212Z,12.46
2023-05-12T03:44:21.861Z,12.45
2023-05-12T03:46:48.341Z,12.46
2023-05-12T03:49:15.249Z,12.53
2023-05-12T03:51:41.789Z,12.61
2023-05-12T03:54:08.126Z,12.66
2023-05-12T03:56:34.569Z,12.63
2023-05-12T03:59:00.989Z,12.68
2023-05-12T04:01:27.389Z,12.60
2023-05-12T04:03:53.921Z,12.58
2023-05-12T04:06:20.353Z,12.58
2023-05-12T04:08:46.753Z,12.54
2023-05-12T04:11:13.712Z,12.53
2023-05-12T04:13:40.235Z,12.62
2023-05-12T04:16:06.582Z,12.63
2023-05-12T04:18:33.075Z,12.56
2023-05-12T04:20:59.462Z,12.50
2023-05-12T04:23:25.855Z,12.34
2023-05-12T04:25:52.401Z,12.49
2023-05-12T04:28:19.115Z,12.48
2023-05-12T04:30:45.546Z,12.44
2023-05-12T04:33:11.966Z,12.42
2023-05-12T04:35:39.041Z,12.44
2023-05-12T04:38:05.439Z,12.43
2023-05-12T04:40:34.716Z,12.35
2023-05-12T04:43:01.427Z,12.43
2023-05-12T04:45:27.855Z,12.44
2023-05-12T04:47:54.276Z,12.34
2023-05-12T04:50:20.740Z,12.04
2023-05-12T04:52:47.153Z,11.97
2023-05-12T04:55:13.482Z,12.08
2023-05-12T04:57:39.900Z,12.11
2023-05-12T05:00:06.418Z,12.15
2023-05-12T05:02:32.946Z,12.14
2023-05-12T05:04:59.392Z,12.20
2023-05-12T05:07:25.776Z,12.29
2023-05-12T05:09:52.105Z,12.27
2023-05-12T05:12:19.573Z,12.30
2023-05-12T05:14:45.953Z,12.39
2023-05-12T05:17:12.481Z,12.44
2023-05-12T05:19:53.135Z,12.50
2023-05-12T05:22:24.363Z,12.46
2023-05-12T05:24:50.789Z,12.44
2023-05-12T05:27:17.186Z,12.38
2023-05-12T05:29:43.594Z,12.34
2023-05-12T05:32:09.995Z,12.47
2023-05-12T05:34:36.580Z,12.50
2023-05-12T05:37:05.047Z,12.40
2023-05-12T05:39:31.389Z,12.41
2023-05-12T05:41:57.895Z,12.43
2023-05-12T05:44:24.305Z,12.47
2023-05-12T05:46:50.943Z,12.54
2023-05-12T05:49:17.411Z,12.51
2023-05-12T05:51:43.745Z,12.48
2023-05-12T05:54:10.125Z,12.39
2023-05-12T05:56:36.978Z,12.27
2023-05-12T05:59:03.840Z,12.31
2023-05-12T06:01:30.417Z,12.58
2023-05-12T06:03:57.027Z,12.51
2023-05-12T06:06:23.619Z,12.45
2023-05-12T06:08:50.052Z,12.48
2023-05-12T06:11:17.916Z,12.45
2023-05-12T06:13:44.487Z,12.39
2023-05-12T06:16:10.944Z,12.33
2023-05-12T06:18:37.504Z,12.25
2023-05-12T06:21:04.234Z,12.21
2023-05-12T06:23:30.654Z,12.15
2023-05-12T06:25:57.255Z,12.21
2023-05-12T06:28:23.719Z,12.18
2023-05-12T06:30:50.487Z,12.19
2023-05-12T06:33:16.852Z,12.16
2023-05-12T06:35:43.219Z,12.30
2023-05-12T06:38:09.567Z,12.39
2023-05-12T06:40:36.006Z,12.20
2023-05-12T06:43:02.606Z,12.21
2023-05-12T06:45:29.025Z,12.25
2023-05-12T06:47:55.656Z,11.90
2023-05-12T06:50:22.023Z,12.06
2023-05-12T06:52:48.501Z,12.27
2023-05-12T06:55:15.013Z,12.19
2023-05-12T06:57:41.403Z,12.17
2023-05-12T07:00:07.888Z,12.18
2023-05-12T07:02:34.298Z,12.14
2023-05-12T07:05:00.852Z,12.14
2023-05-12T07:07:27.241Z,12.21
2023-05-12T07:09:53.640Z,12.15
2023-05-12T07:12:19.993Z,12.17
2023-05-12T07:14:46.577Z,12.11
2023-05-12T07:17:13.028Z,12.13
2023-05-12T07:19:39.620Z,12.15
2023-05-12T07:22:06.076Z,12.12
2023-05-12T07:24:32.551Z,12.15
2023-05-12T07:26:59.086Z,12.12
2023-05-12T07:29:25.479Z,12.21
2023-05-12T07:31:52.014Z,12.11
2023-05-12T07:34:18.563Z,12.25
2023-05-12T07:36:45.096Z,12.16
2023-05-12T07:39:11.479Z,12.15
2023-05-12T07:41:37.848Z,12.19
2023-05-12T07:44:04.331Z,12.15
2023-05-12T07:46:30.741Z,12.13
2023-05-12T07:48:57.119Z,12.03
2023-05-12T07:51:23.542Z,11.95
2023-05-12T07:53:50.039Z,12.13
2023-05-12T07:56:19.532Z,12.08
2023-05-12T07:58:47.408Z,12.03
2023-05-12T08:01:14.438Z,11.90
2023-05-12T08:03:40.996Z,11.96
2023-05-12T08:06:07.509Z,12.02
2023-05-12T08:08:34.086Z,11.79
2023-05-12T08:11:01.850Z,11.60
2023-05-12T08:13:28.362Z,11.92
2023-05-12T08:15:55.051Z,11.91
2023-05-12T08:18:21.490Z,11.86
2023-05-12T08:20:47.914Z,11.85
2023-05-12T08:23:14.296Z,11.95
2023-05-12T08:25:42.783Z,12.02
2023-05-12T08:28:09.189Z,12.12
2023-05-12T08:30:35.795Z,12.09
2023-05-12T08:33:02.297Z,11.99
2023-05-12T08:35:29.074Z,12.19
2023-05-12T08:37:55.615Z,12.09
2023-05-12T08:40:22.031Z,12.20
2023-05-12T08:42:48.766Z,12.22
2023-05-12T08:45:15.151Z,11.99
2023-05-12T08:47:41.656Z,12.08
2023-05-12T08:50:08.587Z,11.95
2023-05-12T08:52:35.042Z,12.13
2023-05-12T08:55:03.260Z,12.21
2023-05-12T08:57:30.244Z,12.27
2023-05-12T08:59:56.648Z,12.22
2023-05-12T09:02:23.705Z,12.37
2023-05-12T09:04:50.431Z,12.41
2023-05-12T09:07:16.939Z,12.34
2023-05-12T09:09:43.757Z,12.39
2023-05-12T09:12:10.127Z,12.35
2023-05-12T09:14:36.724Z,12.23
2023-05-12T09:17:03.142Z,12.08
2023-05-12T09:19:29.737Z,12.06
2023-05-12T09:21:56.120Z,12.06
2023-05-12T09:24:22.833Z,12.05
2023-05-12T09:26:49.307Z,11.93
2023-05-12T09:29:27.789Z,12.11
2023-05-12T09:31:59.105Z,12.12
2023-05-12T09:34:25.583Z,12.09
2023-05-12T09:36:52.062Z,11.90
2023-05-12T09:39:18.960Z,11.84
2023-05-12T09:41:45.392Z,11.76
2023-05-12T09:44:11.746Z,11.65
2023-05-12T09:46:38.111Z,11.79
2023-05-12T09:49:04.653Z,11.76
2023-05-12T09:51:31.302Z,11.71
2023-05-12T09:53:57.843Z,11.62
2023-05-12T09:56:24.299Z,11.67
2023-05-12T09:58:50.950Z,11.82
2023-05-12T10:01:23.442Z,11.90
2023-05-12T10:03:50.659Z,12.08
2023-05-12T10:06:17.068Z,12.26
2023-05-12T10:08:43.502Z,12.28
2023-05-12T10:11:09.942Z,12.21
2023-05-12T10:13:36.369Z,12.21
2023-05-12T10:16:03.063Z,12.08
2023-05-12T10:18:29.463Z,11.94
2023-05-12T10:20:55.923Z,11.92
2023-05-12T10:23:22.593Z,11.79
2023-05-12T10:25:49.038Z,12.00
2023-05-12T10:28:15.521Z,12.20
2023-05-12T10:30:42.179Z,12.51
2023-05-12T10:33:08.685Z,12.69
2023-05-12T10:35:35.080Z,12.66
2023-05-12T10:38:01.586Z,12.88
2023-05-12T10:40:28.098Z,12.89
2023-05-12T10:42:54.513Z,12.94
2023-05-12T10:45:21.449Z,12.95
2023-05-12T10:47:48.141Z,12.67
2023-05-12T10:50:14.832Z,12.43
2023-05-12T10:52:41.316Z,12.81
2023-05-12T10:55:07.675Z,13.10
2023-05-12T10:57:34.672Z,13.00
2023-05-12T11:00:02.266Z,12.76
2023-05-12T11:02:30.613Z,12.81
2023-05-12T11:04:57.964Z,12.84
2023-05-12T11:07:24.923Z,12.77
2023-05-12T11:09:58.475Z,12.67
2023-05-12T11:12:25.508Z,12.56
2023-05-12T11:14:51.935Z,12.70
2023-05-12T11:17:18.339Z,12.87
2023-05-12T11:19:44.804Z,13.03
2023-05-12T11:22:11.226Z,12.98
2023-05-12T11:24:37.687Z,12.92
2023-05-12T11:27:04.317Z,13.06
2023-05-12T11:29:30.685Z,13.14
2023-05-12T11:31:59.972Z,12.86
2023-05-12T11:34:26.637Z,12.93
2023-05-12T11:36:53.050Z,12.94
2023-05-12T11:39:19.432Z,12.82
2023-05-12T11:41:45.843Z,12.74
2023-05-12T11:44:12.213Z,12.68
2023-05-12T11:46:38.606Z,12.45
2023-05-12T11:49:04.998Z,12.45
2023-05-12T11:51:31.368Z,12.51
2023-05-12T11:53:57.758Z,12.22
2023-05-12T11:56:24.193Z,12.02
2023-05-12T11:58:50.512Z,12.10
2023-05-12T12:01:16.856Z,12.10
2023-05-12T12:03:43.336Z,11.93
2023-05-12T12:06:09.985Z,12.09
2023-05-12T12:08:36.535Z,12.09
2023-05-12T12:11:03.683Z,12.03
2023-05-12T12:13:30.343Z,11.98
2023-05-12T12:15:56.753Z,11.93
2023-05-12T12:18:23.321Z,11.83
2023-05-12T12:20:49.775Z,11.76
2023-05-12T12:23:18.496Z,11.86
2023-05-12T12:25:44.909Z,11.88
2023-05-12T12:28:11.340Z,11.88
2023-05-12T12:30:37.723Z,11.93
2023-05-12T12:33:04.164Z,11.88
2023-05-12T12:35:30.664Z,11.72
2023-05-12T12:37:57.062Z,11.87
2023-05-12T12:40:23.479Z,11.90
2023-05-12T12:42:49.999Z,12.10
2023-05-12T12:45:18.509Z,11.82
2023-05-12T12:47:46.608Z,11.75
2023-05-12T12:50:13.109Z,11.77
2023-05-12T12:52:39.629Z,11.76
2023-05-12T12:55:06.032Z,11.87
2023-05-12T12:57:32.522Z,11.81
2023-05-12T12:59:58.878Z,11.69
2023-05-12T13:02:25.469Z,11.63
2023-05-12T13:04:51.999Z,11.35
2023-05-12T13:07:18.396Z,11.57
2023-05-12T13:09:44.880Z,11.79
2023-05-12T13:12:11.346Z,11.74
2023-05-12T13:14:39.659Z,11.86
2023-05-12T13:17:06.145Z,11.67
2023-05-12T13:19:32.622Z,11.77
2023-05-12T13:21:59.070Z,11.91
2023-05-12T13:24:25.430Z,11.83
2023-05-12T13:26:51.857Z,11.74
2023-05-12T13:29:18.485Z,11.78
2023-05-12T13:31:44.861Z,11.91
2023-05-12T13:34:11.242Z,11.93
2023-05-12T13:36:37.785Z,11.80
2023-05-12T13:39:04.195Z,11.82
2023-05-12T13:41:30.576Z,11.85
2023-05-12T13:43:56.944Z,11.89
2023-05-12T13:46:23.564Z,12.04
2023-05-12T13:48:50.332Z,11.83
2023-05-12T13:51:16.731Z,11.85
2023-05-12T13:53:44.187Z,11.78
2023-05-12T13:56:10.535Z,11.88
2023-05-12T13:58:37.958Z,11.97
2023-05-12T14:01:05.315Z,12.03
2023-05-12T14:03:33.796Z,12.31
2023-05-12T14:06:00.178Z,12.43
2023-05-12T14:08:28.898Z,12.27
2023-05-12T14:10:55.473Z,12.05
2023-05-12T14:13:21.882Z,12.13
2023-05-12T14:15:49.800Z,12.16
2023-05-12T14:18:16.634Z,12.07
2023-05-12T14:20:43.085Z,11.98
2023-05-12T14:23:09.431Z,11.91
2023-05-12T14:25:35.838Z,11.89
2023-05-12T14:28:02.226Z,11.88
2023-05-12T14:30:28.762Z,11.91
2023-05-12T14:32:56.410Z,11.82
2023-05-12T14:35:23.029Z,11.77
2023-05-12T14:37:52.409Z,11.71
2023-05-12T14:40:19.293Z,11.60
2023-05-12T14:42:45.675Z,11.65
2023-05-12T14:45:12.507Z,11.55
2023-05-12T14:47:38.970Z,11.46
2023-05-12T14:50:05.393Z,11.50
2023-05-12T14:52:31.769Z,11.50
2023-05-12T14:54:58.421Z,11.46
2023-05-12T14:57:25.037Z,11.45
2023-05-12T14:59:51.417Z,11.58
2023-05-12T15:02:18.100Z,11.57
2023-05-12T15:04:44.536Z,11.53
2023-05-12T15:07:11.022Z,11.56
2023-05-12T15:09:37.442Z,11.60
2023-05-12T15:12:03.896Z,11.50
2023-05-12T15:14:31.292Z,11.49
2023-05-12T15:16:57.926Z,11.46
2023-05-12T15:19:24.399Z,11.51
2023-05-12T15:21:51.086Z,11.46
2023-05-12T15:24:17.710Z,11.52
2023-05-12T15:26:45.073Z,11.47
2023-05-12T15:29:11.742Z,11.53
2023-05-12T15:31:38.304Z,11.64
2023-05-12T15:34:04.788Z,11.57
2023-05-12T15:36:31.258Z,11.52
2023-05-12T15:38:57.939Z,11.54
2023-05-12T15:41:24.278Z,11.58
2023-05-12T15:43:50.749Z,11.76
2023-05-12T15:46:17.341Z,11.69
2023-05-12T15:48:43.727Z,11.61
2023-05-12T15:51:10.065Z,11.73
2023-05-12T15:53:36.903Z,11.66
2023-05-12T15:56:04.555Z,11.54
2023-05-12T15:58:30.948Z,11.57
2023-05-12T16:00:57.380Z,11.48
2023-05-12T16:03:23.953Z,11.33
2023-05-12T16:05:50.571Z,11.27
2023-05-12T16:08:17.038Z,11.30
2023-05-12T16:10:43.533Z,11.37
2023-05-12T16:13:10.003Z,11.37
2023-05-12T16:15:36.721Z,11.46
2023-05-12T16:18:03.162Z,11.47
2023-05-12T16:20:29.691Z,11.20
2023-05-12T16:22:56.204Z,11.33
2023-05-12T16:25:22.752Z,11.49
2023-05-12T16:27:49.141Z,11.34
2023-05-12T16:30:17.185Z,11.42
2023-05-12T16:32:45.104Z,11.26
2023-05-12T16:35:11.691Z,11.12
2023-05-12T16:37:38.429Z,11.15
2023-05-12T16:40:04.915Z,11.14
2023-05-12T16:42:31.767Z,11.21
2023-05-12T16:44:58.468Z,11.29
2023-05-12T16:47:25.099Z,11.59
2023-05-12T16:49:51.793Z,11.54
2023-05-12T16:52:18.255Z,11.39
2023-05-12T16:54:45.058Z,11.33
2023-05-12T16:57:11.647Z,11.33
2023-05-12T16:59:38.601Z,11.41
2023-05-12T17:02:05.437Z,11.46
2023-05-12T17:04:32.531Z,11.47
2023-05-12T17:06:59.300Z,11.44
2023-05-12T17:09:26.230Z,11.30
2023-05-12T17:11:53.035Z,11.27
2023-05-12T17:14:20.192Z,11.33
2023-05-12T17:16:47.198Z,11.41
2023-05-12T17:19:15.030Z,11.43
2023-05-12T17:21:42.186Z,11.40
2023-05-12T17:24:09.258Z,11.42
2023-05-12T17:26:36.808Z,11.41
2023-05-12T17:29:04.138Z,11.42
2023-05-12T17:31:31.153Z,11.27
2023-05-12T17:33:58.487Z,11.29
2023-05-12T17:36:25.588Z,11.29
2023-05-12T17:38:52.987Z,11.30
2023-05-12T17:41:20.067Z,11.36
2023-05-12T17:43:47.021Z,11.40
2023-05-12T17:46:14.859Z,11.41
2023-05-12T17:48:41.911Z,11.42
2023-05-12T17:51:09.347Z,11.42
2023-05-12T17:53:36.674Z,11.38
2023-05-12T17:56:03.799Z,11.32
2023-05-12T17:58:31.025Z,11.33
2023-05-12T18:00:58.279Z,11.35
2023-05-12T18:03:25.420Z,11.34
2023-05-12T18:05:52.570Z,11.26
2023-05-12T18:08:19.745Z,11.19
2023-05-12T18:10:46.815Z,11.07
2023-05-12T18:13:14.465Z,10.86
2023-05-12T18:15:41.606Z,10.85
2023-05-12T18:18:10.107Z,10.87
2023-05-12T18:20:37.765Z,11.00
2023-05-12T18:23:05.557Z,10.99
2023-05-12T18:25:33.078Z,11.06
2023-05-12T18:28:00.665Z,11.14
2023-05-12T18:30:28.309Z,10.93
2023-05-12T18:32:55.490Z,10.90
2023-05-12T18:35:23.096Z,11.02
2023-05-12T18:37:50.883Z,11.01
2023-05-12T18:40:18.066Z,11.10
2023-05-12T18:42:45.237Z,11.47
2023-05-12T18:45:12.739Z,11.79
2023-05-12T18:47:40.004Z,11.59
2023-05-12T18:50:07.190Z,11.49
2023-05-12T18:52:34.678Z,11.27
2023-05-12T18:55:01.841Z,11.24
2023-05-12T18:57:29.026Z,11.32
2023-05-12T18:59:56.169Z,11.72
2023-05-12T19:02:23.371Z,11.97
2023-05-12T19:04:50.619Z,12.18
2023-05-12T19:07:17.985Z,11.95
2023-05-12T19:09:45.173Z,11.58
2023-05-12T19:12:12.766Z,11.57
2023-05-12T19:14:40.826Z,11.58
2023-05-12T19:17:08.996Z,11.58
2023-05-12T19:19:36.462Z,11.53
2023-05-12T19:22:03.712Z,11.50
2023-05-12T19:24:30.875Z,11.45
2023-05-12T19:26:58.274Z,11.41
2023-05-12T19:29:25.810Z,11.30
2023-05-12T19:31:53.232Z,11.26
2023-05-12T19:34:22.654Z,11.43
2023-05-12T19:36:49.857Z,11.40
2023-05-12T19:39:17.058Z,11.22
2023-05-12T19:41:44.812Z,11.18
2023-05-12T19:44:12.526Z,11.13
2023-05-12T19:46:41.380Z,11.18
2023-05-12T19:49:08.543Z,11.20
2023-05-12T19:51:35.746Z,11.15
2023-05-12T19:54:02.864Z,11.08
2023-05-12T19:56:29.986Z,11.09
2023-05-12T19:58:57.125Z,11.19
2023-05-12T20:01:24.609Z,11.02
2023-05-12T20:03:52.320Z,10.95
2023-05-12T20:06:19.812Z,11.06
2023-05-12T20:08:46.975Z,11.14
2023-05-12T20:11:14.059Z,11.13
2023-05-12T20:13:41.339Z,11.07
2023-05-12T20:16:08.705Z,11.17
2023-05-12T20:18:35.881Z,11.14
2023-05-12T20:21:03.059Z,10.93
2023-05-12T20:23:30.160Z,10.91
2023-05-12T20:25:57.312Z,10.95
2023-05-12T20:28:24.602Z,10.85
2023-05-12T20:30:51.750Z,10.86
2023-05-12T20:33:18.759Z,10.94
2023-05-12T20:35:46.691Z,10.99
2023-05-12T20:38:13.769Z,10.89
2023-05-12T20:40:41.539Z,10.91
2023-05-12T20:43:08.685Z,10.94
2023-05-12T20:45:45.297Z,10.90
2023-05-12T20:48:12.349Z,10.88
2023-05-12T20:50:39.582Z,10.83
2023-05-12T20:53:06.550Z,10.87
2023-05-12T20:55:33.346Z,10.83
2023-05-12T20:58:00.411Z,10.80
2023-05-12T21:00:26.837Z,10.88
2023-05-12T21:02:53.305Z,10.88
2023-05-12T21:05:19.983Z,10.98
2023-05-12T21:07:46.655Z,10.94
2023-05-12T21:10:13.063Z,11.03
2023-05-12T21:12:39.453Z,11.08
2023-05-12T21:15:05.913Z,11.05
2023-05-12T21:17:32.315Z,10.98
2023-05-12T21:19:59.098Z,11.01
2023-05-12T21:22:25.469Z,11.02
2023-05-12T21:24:52.552Z,10.99
2023-05-12T21:27:18.990Z,10.93
2023-05-12T21:29:45.464Z,10.68
2023-05-12T21:32:11.953Z,10.67
2023-05-12T21:34:38.348Z,10.72
2023-05-12T21:37:04.895Z,10.63
2023-05-12T21:39:31.383Z,10.67
2023-05-12T21:41:57.928Z,10.75
2023-05-12T21:44:24.296Z,10.74
2023-05-12T21:46:50.760Z,10.72
2023-05-12T21:49:17.124Z,10.76
2023-05-12T21:51:43.545Z,10.71
2023-05-12T21:54:10.091Z,10.73
2023-05-12T21:56:36.783Z,10.79
2023-05-12T21:59:03.307Z,10.85
2023-05-12T22:01:29.824Z,10.81
2023-05-12T22:03:56.381Z,10.83
2023-05-12T22:06:22.826Z,10.78
2023-05-12T22:08:49.251Z,10.81
2023-05-12T22:11:15.618Z,10.81
2023-05-12T22:13:42.048Z,10.75
2023-05-12T22:16:08.443Z,10.79
2023-05-12T22:18:35.356Z,10.74
2023-05-12T22:21:01.890Z,10.78
2023-05-12T22:23:28.301Z,10.84
2023-05-12T22:25:54.700Z,10.87
2023-05-12T22:28:21.183Z,10.91
2023-05-12T22:30:47.565Z,10.97
2023-05-12T22:33:13.894Z,11.02
2023-05-12T22:35:40.294Z,11.00
2023-05-12T22:38:06.647Z,10.90
2023-05-12T22:40:33.106Z,10.83
2023-05-12T22:42:59.480Z,10.77
2023-05-12T22:45:25.981Z,10.71
2023-05-12T22:47:52.383Z,10.64
2023-05-12T22:50:19.101Z,10.59
2023-05-12T22:52:45.792Z,10.68
2023-05-12T22:55:12.276Z,10.68
2023-05-12T22:57:38.691Z,10.73
2023-05-12T23:00:05.167Z,10.80
2023-05-12T23:02:31.658Z,10.66
2023-05-12T23:04:58.064Z,10.68
2023-05-12T23:07:24.506Z,10.69
2023-05-12T23:09:50.899Z,10.72
2023-05-12T23:12:17.521Z,10.77
2023-05-12T23:14:43.953Z,10.72
2023-05-12T23:17:10.337Z,10.68
2023-05-12T23:19:36.786Z,10.76
2023-05-12T23:22:03.210Z,10.62
2023-05-12T23:24:31.987Z,10.50
2023-05-12T23:26:58.327Z,10.47
2023-05-12T23:29:24.694Z,10.54
2023-05-12T23:31:51.160Z,10.55
2023-05-12T23:34:17.646Z,10.56
2023-05-12T23:36:44.019Z,10.61
2023-05-12T23:39:10.508Z,10.64
2023-05-12T23:41:37.022Z,10.72
2023-05-12T23:44:03.657Z,10.76
2023-05-12T23:46:30.602Z,10.78
2023-05-12T23:48:56.978Z,10.76
2023-05-12T23:51:23.353Z,10.74
2023-05-12T23:53:49.885Z,10.68
2023-05-12T23:56:16.499Z,10.67
2023-05-12T23:58:42.882Z,10.57
